Map

Track Data

SID SEASON NUMBER BASIN SUBBASIN NAME ISO_TIME NATURE LAT LON WMO_WIND WMO_PRES WMO_AGENCY TRACK_TYPE DIST2LAND LANDFALL IFLAG USA_AGENCY USA_ATCF_ID USA_LAT USA_LON USA_RECORD USA_STATUS USA_WIND USA_PRES USA_SSHS USA_R34_NE USA_R34_SE USA_R34_SW USA_R34_NW USA_R50_NE USA_R50_SE USA_R50_SW USA_R50_NW USA_R64_NE USA_R64_SE USA_R64_SW USA_R64_NW USA_POCI USA_ROCI USA_RMW USA_EYE TOKYO_LAT TOKYO_LON TOKYO_GRADE TOKYO_WIND TOKYO_PRES TOKYO_R50_DIR TOKYO_R50_LONG TOKYO_R50_SHORT TOKYO_R30_DIR TOKYO_R30_LONG TOKYO_R30_SHORT TOKYO_LAND CMA_LAT CMA_LON CMA_CAT CMA_WIND CMA_PRES HKO_LAT HKO_LON HKO_CAT HKO_WIND HKO_PRES NEWDELHI_LAT NEWDELHI_LON NEWDELHI_GRADE NEWDELHI_WIND NEWDELHI_PRES NEWDELHI_CI NEWDELHI_DP NEWDELHI_POCI REUNION_LAT REUNION_LON REUNION_TYPE REUNION_WIND REUNION_PRES REUNION_TNUM REUNION_CI REUNION_RMW REUNION_R34_NE REUNION_R34_SE REUNION_R34_SW REUNION_R34_NW REUNION_R50_NE REUNION_R50_SE REUNION_R50_SW REUNION_R50_NW REUNION_R64_NE REUNION_R64_SE REUNION_R64_SW REUNION_R64_NW BOM_LAT BOM_LON BOM_TYPE BOM_WIND BOM_PRES BOM_TNUM BOM_CI BOM_RMW BOM_R34_NE BOM_R34_SE BOM_R34_SW BOM_R34_NW BOM_R50_NE BOM_R50_SE BOM_R50_SW BOM_R50_NW BOM_R64_NE BOM_R64_SE BOM_R64_SW BOM_R64_NW BOM_ROCI BOM_POCI BOM_EYE BOM_POS_METHOD BOM_PRES_METHOD NADI_LAT NADI_LON NADI_CAT NADI_WIND NADI_PRES WELLINGTON_LAT WELLINGTON_LON WELLINGTON_WIND WELLINGTON_PRES DS824_LAT DS824_LON DS824_STAGE DS824_WIND DS824_PRES TD9636_LAT TD9636_LON TD9636_STAGE TD9636_WIND TD9636_PRES TD9635_LAT TD9635_LON TD9635_WIND TD9635_PRES TD9635_ROCI NEUMANN_LAT NEUMANN_LON NEUMANN_CLASS NEUMANN_WIND NEUMANN_PRES MLC_LAT MLC_LON MLC_CLASS MLC_WIND MLC_PRES USA_GUST BOM_GUST BOM_GUST_PER REUNION_GUST REUNION_GUST_PER USA_SEAHGT USA_SEARAD_NE USA_SEARAD_SE USA_SEARAD_SW USA_SEARAD_NW STORM_SPEED STORM_DIR
1933256N13147 1933 55 WP MM NOT_NAMED 1933-09-13 10:00:00 NR 13.0000 146.500 main 1691 1691 __________O___ -1 13.0000 146.500 7 13 315
1933256N13147 1933 55 WP MM NOT_NAMED 1933-09-13 12:00:00 NR 13.3111 146.180 main 1725 1725 __________P___ -1 13.3111 146.180 7 13 315
1933256N13147 1933 55 WP MM NOT_NAMED 1933-09-13 15:00:00 NR 13.7857 145.695 main 1784 1784 __________P___ -1 13.7857 145.695 7 14 315
1933256N13147 1933 55 WP MM NOT_NAMED 1933-09-13 18:00:00 NR 14.2818 145.197 main 1843 1843 __________P___ -1 14.2818 145.197 7 14 316
1933256N13147 1933 55 WP MM NOT_NAMED 1933-09-13 21:00:00 NR 14.8129 144.678 main 1904 1906 __________P___ -1 14.8129 144.678 7 15 317
1933256N13147 1933 55 WP MM NOT_NAMED 1933-09-13 22:00:00 NR 15.0000 144.500 main 1929 1929 __________O___ -1 15.0000 144.500 7 16 318
1933256N13147 1933 55 WP MM NOT_NAMED 1933-09-14 00:00:00 NR 15.3908 144.134 main 1979 1979 __________P___ -1 15.3908 144.134 7 16 318
1933256N13147 1933 55 WP MM NOT_NAMED 1933-09-14 03:00:00 NR 16.0086 143.573 main 1997 1947 __________P___ -1 16.0086 143.573 7 17 319
1933256N13147 1933 55 WP MM NOT_NAMED 1933-09-14 06:00:00 NR 16.6476 143.013 main 1947 1911 __________P___ -1 16.6476 143.013 7 17 321
1933256N13147 1933 55 WP MM NOT_NAMED 1933-09-14 09:00:00 NR 17.2889 142.472 main 1914 1890 __________P___ -1 17.2889 142.472 7 16 321
1933256N13147 1933 55 WP MM NOT_NAMED 1933-09-14 10:00:00 NR 17.5000 142.300 main 1890 1838 __________O___ -1 17.5000 142.300 7 15 321
1933256N13147 1933 55 WP MM NOT_NAMED 1933-09-14 12:00:00 NR 17.8870 141.968 main 1838 1758 __________P___ -1 17.8870 141.968 7 15 321
1933256N13147 1933 55 WP MM NOT_NAMED 1933-09-14 15:00:00 NR 18.4611 141.496 main 1758 1692 __________P___ -1 18.4611 141.496 7 15 323
1933256N13147 1933 55 WP MM NOT_NAMED 1933-09-14 18:00:00 NR 19.0497 141.053 main 1692 1597 __________P___ -1 19.0497 141.053 7 15 326
1933256N13147 1933 55 WP MM NOT_NAMED 1933-09-14 21:00:00 NR 19.6777 140.634 main 1597 1573 __________P___ -1 19.6777 140.634 7 15 329
1933256N13147 1933 55 WP MM NOT_NAMED 1933-09-14 22:00:00 NR 19.9000 140.500 main 1573 1509 __________O___ -1 19.9000 140.500 7 16 329
1933256N13147 1933 55 WP MM NOT_NAMED 1933-09-15 00:00:00 NR 20.3663 140.202 main 1509 1421 __________P___ -1 20.3663 140.202 7 17 331
1933256N13147 1933 55 WP MM NOT_NAMED 1933-09-15 03:00:00 NR 21.1098 139.773 main 1421 1324 __________P___ -1 21.1098 139.773 7 17 334
1933256N13147 1933 55 WP MM NOT_NAMED 1933-09-15 06:00:00 NR 21.8975 139.390 main 1324 1233 __________P___ -1 21.8975 139.390 7 17 338
1933256N13147 1933 55 WP MM NOT_NAMED 1933-09-15 09:00:00 NR 22.7198 139.082 main 1233 1200 __________P___ -1 22.7198 139.082 7 17 342
1933256N13147 1933 55 WP MM NOT_NAMED 1933-09-15 10:00:00 NR 23.0000 139.000 main 1200 1134 __________O___ -1 23.0000 139.000 7 17 347
1933256N13147 1933 55 WP MM NOT_NAMED 1933-09-15 12:00:00 NR 23.5677 138.873 main 1134 1045 __________P___ -1 23.5677 138.873 7 18 351
1933256N13147 1933 55 WP MM NOT_NAMED 1933-09-15 15:00:00 NR 24.4347 138.758 main 1045 946 __________P___ -1 24.4347 138.758 7 18 355
1933256N13147 1933 55 WP MM NOT_NAMED 1933-09-15 18:00:00 NR 25.3151 138.709 main 946 850 __________P___ -1 25.3151 138.709 7 18 358
1933256N13147 1933 55 WP MM NOT_NAMED 1933-09-15 21:00:00 NR 26.2033 138.700 main 850 818 __________P___ -1 26.2033 138.700 7 18 359
1933256N13147 1933 55 WP MM NOT_NAMED 1933-09-15 22:00:00 NR 26.5000 138.700 main 818 __________O___ -1 26.5000 138.700 7 18 0

Digital Typhoon Data and Search

About IBTrACS Database

This database is a web-friendly format of International Best Track Archive for Climate Stewardship (IBTrACS), a global best track data archive curated by NOAA dating back to 1842.

Updated: 2021-10-19